createdAt,value
2023-10-21T00:01:06.599Z,13.71
2023-10-21T00:03:34.522Z,13.69
2023-10-21T00:06:02.485Z,13.70
2023-10-21T00:08:30.476Z,13.70
2023-10-21T00:11:05.390Z,13.69
2023-10-21T00:13:34.522Z,13.70
2023-10-21T00:16:02.269Z,13.71
2023-10-21T00:18:30.197Z,13.70
2023-10-21T00:20:58.143Z,13.70
2023-10-21T00:23:26.104Z,13.69
2023-10-21T00:25:53.869Z,13.69
2023-10-21T00:28:21.607Z,13.72
2023-10-21T00:30:50.940Z,13.73
2023-10-21T00:33:18.782Z,13.72
2023-10-21T00:35:47.365Z,13.74
2023-10-21T00:38:15.277Z,13.68
2023-10-21T00:40:51.739Z,13.71
2023-10-21T00:43:35.920Z,13.65
2023-10-21T00:46:08.333Z,13.68
2023-10-21T00:48:36.194Z,13.71
2023-10-21T00:51:04.216Z,13.59
2023-10-21T00:53:33.550Z,13.72
2023-10-21T00:56:01.471Z,13.76
2023-10-21T00:58:32.207Z,13.80
2023-10-21T01:01:00.271Z,13.82
2023-10-21T01:03:29.802Z,13.85
2023-10-21T01:05:57.807Z,13.77
2023-10-21T01:08:26.011Z,13.90
2023-10-21T01:10:53.951Z,13.91
2023-10-21T01:13:21.809Z,13.93
2023-10-21T01:15:49.597Z,13.94
2023-10-21T01:18:17.459Z,13.94
2023-10-21T01:20:46.731Z,13.96
2023-10-21T01:23:16.641Z,13.96
2023-10-21T01:25:44.871Z,14.01
2023-10-21T01:28:13.366Z,14.02
2023-10-21T01:30:41.116Z,14.04
2023-10-21T01:33:08.970Z,14.07
2023-10-21T01:35:36.806Z,14.09
2023-10-21T01:38:05.129Z,14.13
2023-10-21T01:40:34.296Z,14.13
2023-10-21T01:43:02.922Z,14.14
2023-10-21T01:45:30.819Z,14.17
2023-10-21T01:47:59.307Z,14.18
2023-10-21T01:50:27.116Z,14.21
2023-10-21T01:52:55.581Z,14.23
2023-10-21T01:55:23.376Z,14.25
2023-10-21T01:57:52.783Z,14.29
2023-10-21T02:00:21.643Z,14.29
2023-10-21T02:02:54.219Z,14.30
2023-10-21T02:05:23.173Z,14.31
2023-10-21T02:07:52.045Z,14.31
2023-10-21T02:10:22.206Z,14.34
2023-10-21T02:12:49.990Z,14.35
2023-10-21T02:15:19.177Z,14.35
2023-10-21T02:17:47.585Z,14.36
2023-10-21T02:20:16.505Z,14.36
2023-10-21T02:22:44.616Z,14.37
2023-10-21T02:25:15.850Z,14.37
2023-10-21T02:27:44.343Z,14.35
2023-10-21T02:30:14.772Z,14.32
2023-10-21T02:32:46.278Z,14.28
2023-10-21T02:35:14.409Z,14.23
2023-10-21T02:37:43.046Z,14.22
2023-10-21T02:40:12.403Z,14.20
2023-10-21T02:42:40.191Z,14.16
2023-10-21T02:45:08.932Z,14.13
2023-10-21T02:47:37.573Z,14.11
2023-10-21T02:50:08.073Z,14.07
2023-10-21T02:52:37.663Z,14.02
2023-10-21T02:55:06.641Z,13.99
2023-10-21T02:57:34.386Z,13.95
2023-10-21T03:00:02.196Z,13.95
2023-10-21T03:02:30.178Z,13.92
2023-10-21T03:04:58.006Z,13.90
2023-10-21T03:07:27.098Z,13.90
2023-10-21T03:09:54.847Z,13.89
2023-10-21T03:12:22.610Z,13.89
2023-10-21T03:14:50.425Z,13.89
2023-10-21T03:17:18.257Z,13.90
2023-10-21T03:19:46.016Z,13.91
2023-10-21T03:22:13.770Z,13.92
2023-10-21T03:24:42.913Z,13.93
2023-10-21T03:27:10.649Z,13.92
2023-10-21T03:29:38.518Z,13.93
2023-10-21T03:32:06.909Z,13.92
2023-10-21T03:34:35.061Z,13.91
2023-10-21T03:37:03.052Z,13.93
2023-10-21T03:39:30.999Z,13.94
2023-10-21T03:42:00.357Z,13.94
2023-10-21T03:44:28.221Z,13.93
2023-10-21T03:46:56.030Z,13.93
2023-10-21T03:49:24.105Z,13.94
2023-10-21T03:51:51.895Z,13.94
2023-10-21T03:54:19.740Z,13.95
2023-10-21T03:56:47.595Z,13.95
2023-10-21T03:59:16.750Z,13.95
2023-10-21T04:01:44.498Z,13.95
2023-10-21T04:04:12.359Z,13.95
2023-10-21T04:06:40.194Z,13.96
2023-10-21T04:09:09.262Z,13.96
2023-10-21T04:11:37.173Z,13.98
2023-10-21T04:14:06.264Z,14.00
2023-10-21T04:16:35.357Z,14.01
2023-10-21T04:19:03.095Z,14.01
2023-10-21T04:21:30.850Z,14.01
2023-10-21T04:23:58.654Z,14.01
2023-10-21T04:26:26.445Z,14.03
2023-10-21T04:28:54.872Z,14.05
2023-10-21T04:31:22.691Z,14.04
2023-10-21T04:33:52.206Z,14.05
2023-10-21T04:36:20.256Z,14.05
2023-10-21T04:38:48.057Z,14.04
2023-10-21T04:41:15.905Z,14.06
2023-10-21T04:43:43.617Z,14.06
2023-10-21T04:46:12.556Z,14.06
2023-10-21T04:48:40.444Z,14.06
2023-10-21T04:51:10.331Z,14.07
2023-10-21T04:53:38.635Z,14.07
2023-10-21T04:56:06.998Z,14.08
2023-10-21T04:58:35.262Z,14.08
2023-10-21T05:01:04.085Z,14.09
2023-10-21T05:03:32.123Z,14.08
2023-10-21T05:05:59.972Z,14.11
2023-10-21T05:08:29.070Z,14.13
2023-10-21T05:10:56.837Z,14.13
2023-10-21T05:13:24.787Z,14.15
2023-10-21T05:15:52.592Z,14.17
2023-10-21T05:18:21.024Z,14.18
2023-10-21T05:20:48.836Z,14.20
2023-10-21T05:23:16.807Z,14.20
2023-10-21T05:25:45.878Z,14.21
2023-10-21T05:28:13.660Z,14.23
2023-10-21T05:30:43.531Z,14.24
2023-10-21T05:33:11.561Z,14.26
2023-10-21T05:35:39.526Z,14.25
2023-10-21T05:38:07.293Z,14.24
2023-10-21T05:40:36.389Z,14.24
2023-10-21T05:43:05.661Z,14.22
2023-10-21T05:45:33.475Z,14.18
2023-10-21T05:48:01.413Z,14.17
2023-10-21T05:50:29.259Z,14.12
2023-10-21T05:52:57.768Z,14.10
2023-10-21T05:55:25.729Z,14.08
2023-10-21T05:57:53.560Z,14.04
2023-10-21T06:00:22.993Z,14.01
2023-10-21T06:02:50.943Z,13.99
2023-10-21T06:05:18.886Z,13.89
2023-10-21T06:07:46.612Z,13.94
2023-10-21T06:10:15.205Z,13.92
2023-10-21T06:12:45.275Z,13.90
2023-10-21T06:15:15.304Z,13.88
2023-10-21T06:17:44.490Z,13.88
2023-10-21T06:20:13.119Z,13.87
2023-10-21T06:22:40.889Z,13.88
2023-10-21T06:25:09.368Z,13.89
2023-10-21T06:27:38.167Z,13.89
2023-10-21T06:30:06.753Z,13.91
2023-10-21T06:32:34.563Z,13.90
2023-10-21T06:35:03.950Z,13.92
2023-10-21T06:37:31.689Z,13.93
2023-10-21T06:39:59.409Z,13.95
2023-10-21T06:42:27.272Z,13.96
2023-10-21T06:44:55.092Z,13.99
2023-10-21T06:47:22.830Z,14.04
2023-10-21T06:49:50.617Z,14.09
2023-10-21T06:52:21.329Z,14.14
2023-10-21T06:54:49.164Z,14.13
2023-10-21T06:57:21.820Z,14.22
2023-10-21T06:59:49.775Z,14.27
2023-10-21T07:02:18.400Z,14.31
2023-10-21T07:04:46.273Z,14.36
2023-10-21T07:07:14.095Z,14.43
2023-10-21T07:09:43.205Z,14.47
2023-10-21T07:12:13.135Z,14.49
2023-10-21T07:14:41.097Z,14.47
2023-10-21T07:17:09.547Z,14.49
2023-10-21T07:19:37.360Z,14.48
2023-10-21T07:22:05.508Z,14.49
2023-10-21T07:24:33.796Z,14.46
2023-10-21T07:27:03.416Z,14.52
2023-10-21T07:29:32.886Z,14.54
2023-10-21T07:32:00.607Z,14.63
2023-10-21T07:34:28.348Z,14.71
2023-10-21T07:36:56.098Z,14.85
2023-10-21T07:39:23.890Z,14.82
2023-10-21T07:41:51.806Z,14.89
2023-10-21T07:44:23.032Z,14.91
2023-10-21T07:46:52.430Z,14.91
2023-10-21T07:49:20.249Z,14.92
2023-10-21T07:51:49.666Z,14.91
2023-10-21T07:54:17.633Z,14.87
2023-10-21T07:56:48.146Z,14.77
2023-10-21T07:59:17.283Z,14.94
2023-10-21T08:01:46.721Z,14.96
2023-10-21T08:04:14.568Z,14.90
2023-10-21T08:06:44.839Z,14.88
2023-10-21T08:09:15.569Z,14.81
2023-10-21T08:11:44.280Z,14.80
2023-10-21T08:14:12.373Z,14.75
2023-10-21T08:16:40.356Z,14.64
2023-10-21T08:19:12.308Z,14.46
2023-10-21T08:21:40.416Z,14.31
2023-10-21T08:24:09.767Z,14.22
2023-10-21T08:26:37.511Z,14.26
2023-10-21T08:29:08.241Z,14.36
2023-10-21T08:31:36.054Z,14.48
2023-10-21T08:34:03.902Z,14.50
2023-10-21T08:36:33.418Z,14.56
2023-10-21T08:39:01.360Z,14.58
2023-10-21T08:41:31.186Z,14.59
2023-10-21T08:43:58.954Z,14.57
2023-10-21T08:46:27.378Z,14.56
2023-10-21T08:48:55.355Z,14.56
2023-10-21T08:51:23.574Z,14.60
2023-10-21T08:53:55.156Z,14.67
2023-10-21T08:56:23.465Z,14.86
2023-10-21T08:58:52.305Z,15.22
2023-10-21T09:01:20.084Z,15.57
2023-10-21T09:03:49.193Z,15.81
2023-10-21T09:06:19.178Z,15.76
2023-10-21T09:08:48.546Z,15.65
2023-10-21T09:11:20.022Z,15.61
2023-10-21T09:13:48.205Z,15.62
2023-10-21T09:16:21.615Z,15.65
2023-10-21T09:19:00.743Z,15.68
2023-10-21T09:21:46.833Z,15.80
2023-10-21T09:24:23.102Z,15.86
2023-10-21T09:26:53.112Z,15.93
2023-10-21T09:29:23.549Z,16.22
2023-10-21T09:31:53.811Z,16.11
2023-10-21T09:34:26.848Z,16.03
2023-10-21T09:36:54.971Z,15.90
2023-10-21T09:39:23.562Z,15.99
2023-10-21T09:41:53.343Z,15.98
2023-10-21T09:44:21.648Z,15.92
2023-10-21T09:46:50.563Z,15.81
2023-10-21T09:49:18.645Z,15.83
2023-10-21T09:51:52.352Z,15.78
2023-10-21T09:54:25.714Z,15.74
2023-10-21T09:56:55.415Z,15.78
2023-10-21T09:59:24.196Z,15.78
2023-10-21T10:01:53.267Z,15.96
2023-10-21T10:04:23.763Z,16.18
2023-10-21T10:07:05.483Z,16.76
2023-10-21T10:09:34.799Z,17.05
2023-10-21T10:12:08.431Z,17.18
2023-10-21T10:14:36.196Z,17.01
2023-10-21T10:17:06.957Z,16.95
2023-10-21T10:19:38.521Z,16.96
2023-10-21T10:22:20.127Z,17.29
2023-10-21T10:24:53.092Z,17.38
2023-10-21T10:27:23.325Z,17.26
2023-10-21T10:29:52.374Z,17.34
2023-10-21T10:32:21.542Z,17.41
2023-10-21T10:34:54.547Z,17.49
2023-10-21T10:37:27.841Z,17.68
2023-10-21T10:39:56.498Z,17.77
2023-10-21T10:42:29.427Z,17.70
2023-10-21T10:44:57.098Z,17.37
2023-10-21T10:47:25.160Z,17.41
2023-10-21T10:49:55.519Z,17.62
2023-10-21T10:52:32.750Z,17.58
2023-10-21T10:55:00.670Z,17.46
2023-10-21T10:57:30.139Z,17.39
2023-10-21T10:59:58.833Z,17.47
2023-10-21T11:02:30.109Z,17.90
2023-10-21T11:04:59.933Z,18.09
2023-10-21T11:07:31.350Z,18.45
2023-10-21T11:10:02.718Z,18.69
2023-10-21T11:12:32.237Z,18.86
2023-10-21T11:15:01.788Z,18.83
2023-10-21T11:17:31.073Z,18.87
2023-10-21T11:19:59.662Z,18.41
2023-10-21T11:22:29.359Z,18.12
2023-10-21T11:24:57.123Z,17.57
2023-10-21T11:27:25.156Z,17.49
2023-10-21T11:29:54.914Z,17.38
2023-10-21T11:32:26.769Z,17.27
2023-10-21T11:34:54.738Z,17.20
2023-10-21T11:37:22.527Z,17.27
2023-10-21T11:39:51.005Z,17.39
2023-10-21T11:42:19.779Z,17.35
2023-10-21T11:44:57.728Z,17.25
2023-10-21T11:47:27.501Z,17.33
2023-10-21T11:49:56.280Z,17.34
2023-10-21T11:52:25.252Z,17.36
2023-10-21T11:55:14.508Z,17.46
2023-10-21T11:57:56.717Z,17.79
2023-10-21T12:00:48.148Z,18.25
2023-10-21T12:03:35.873Z,18.70
2023-10-21T12:06:21.404Z,19.03
2023-10-21T12:09:07.064Z,19.23
2023-10-21T12:11:57.647Z,19.30
2023-10-21T12:14:59.620Z,19.29
2023-10-21T12:17:46.702Z,19.22
2023-10-21T12:20:32.588Z,19.19
2023-10-21T12:23:32.502Z,18.76
2023-10-21T12:26:22.914Z,18.43
2023-10-21T12:29:13.566Z,18.07
2023-10-21T12:31:54.129Z,17.77
2023-10-21T12:34:44.423Z,17.58
2023-10-21T12:37:29.996Z,17.76
2023-10-21T12:40:21.428Z,18.12
2023-10-21T12:42:50.190Z,18.49
2023-10-21T12:45:20.917Z,18.71
2023-10-21T12:47:49.356Z,18.79
2023-10-21T12:50:18.576Z,18.83
2023-10-21T12:52:49.648Z,18.89
2023-10-21T12:55:17.730Z,19.01
2023-10-21T12:57:45.809Z,19.15
2023-10-21T13:00:16.725Z,19.28
2023-10-21T13:02:44.947Z,19.38
2023-10-21T13:05:13.241Z,19.40
2023-10-21T13:07:42.401Z,19.50
2023-10-21T13:10:10.952Z,19.44
2023-10-21T13:12:39.354Z,19.11
2023-10-21T13:15:13.079Z,18.91
2023-10-21T13:17:41.103Z,18.44
2023-10-21T13:20:17.403Z,18.21
2023-10-21T13:22:47.580Z,18.09
2023-10-21T13:25:19.097Z,18.39
2023-10-21T13:27:48.957Z,18.57
2023-10-21T13:30:16.869Z,18.58
2023-10-21T13:32:46.929Z,18.48
2023-10-21T13:35:16.335Z,18.53
2023-10-21T13:37:46.868Z,18.54
2023-10-21T13:40:16.721Z,18.45
2023-10-21T13:42:46.752Z,18.22
2023-10-21T13:45:21.547Z,18.02
2023-10-21T13:47:50.409Z,18.13
2023-10-21T13:50:19.404Z,18.18
2023-10-21T13:52:47.711Z,18.29
2023-10-21T13:55:17.397Z,18.38
2023-10-21T13:57:46.424Z,18.30
2023-10-21T14:00:35.040Z,18.30
2023-10-21T14:03:09.883Z,18.25
2023-10-21T14:05:39.870Z,18.26
2023-10-21T14:08:12.416Z,18.28
2023-10-21T14:10:44.153Z,18.41
2023-10-21T14:13:16.801Z,18.30
2023-10-21T14:15:45.800Z,18.36
2023-10-21T14:18:13.670Z,18.23
2023-10-21T14:20:42.335Z,18.03
2023-10-21T14:23:11.081Z,17.97
2023-10-21T14:25:40.868Z,17.79
2023-10-21T14:28:13.444Z,17.76
2023-10-21T14:30:43.789Z,17.66
2023-10-21T14:33:13.486Z,17.66
2023-10-21T14:35:41.784Z,17.54
2023-10-21T14:38:09.957Z,17.49
2023-10-21T14:40:39.417Z,17.49
2023-10-21T14:43:08.968Z,17.37
2023-10-21T14:45:38.812Z,17.30
2023-10-21T14:48:08.529Z,17.30
2023-10-21T14:50:36.491Z,17.24
2023-10-21T14:53:04.980Z,17.21
2023-10-21T14:55:48.275Z,17.14
2023-10-21T14:58:23.542Z,16.98
2023-10-21T15:00:54.014Z,17.01
2023-10-21T15:03:23.516Z,17.00
2023-10-21T15:05:52.690Z,16.95
2023-10-21T15:08:22.366Z,16.98
2023-10-21T15:10:52.415Z,16.95
2023-10-21T15:13:20.537Z,16.86
2023-10-21T15:15:49.874Z,16.86
2023-10-21T15:18:19.898Z,16.85
2023-10-21T15:20:46.707Z,16.84
2023-10-21T15:23:14.460Z,16.81
2023-10-21T15:25:42.228Z,16.78
2023-10-21T15:28:10.009Z,16.74
2023-10-21T15:30:37.915Z,16.69
2023-10-21T15:33:05.990Z,16.65
2023-10-21T15:35:35.566Z,16.57
2023-10-21T15:38:04.610Z,16.56
2023-10-21T15:40:34.101Z,16.50
2023-10-21T15:43:01.851Z,16.52
2023-10-21T15:45:29.668Z,16.52
2023-10-21T15:48:00.151Z,16.60
2023-10-21T15:50:27.902Z,16.61
2023-10-21T15:52:57.279Z,16.61
2023-10-21T15:55:27.164Z,16.62
2023-10-21T15:57:54.964Z,16.57
2023-10-21T16:00:22.848Z,16.55
2023-10-21T16:02:51.368Z,16.57
2023-10-21T16:05:19.307Z,16.56
2023-10-21T16:07:57.851Z,16.47
2023-10-21T16:10:27.635Z,16.52
2023-10-21T16:12:55.411Z,16.49
2023-10-21T16:15:23.252Z,16.51
2023-10-21T16:17:51.182Z,16.47
2023-10-21T16:20:19.601Z,16.47
2023-10-21T16:22:49.030Z,16.41
2023-10-21T16:25:17.191Z,16.35
2023-10-21T16:27:46.344Z,16.30
2023-10-21T16:30:14.661Z,16.26
2023-10-21T16:32:43.165Z,16.19
2023-10-21T16:35:11.968Z,16.12
2023-10-21T16:37:39.909Z,16.07
2023-10-21T16:40:09.384Z,16.03
2023-10-21T16:42:37.763Z,15.97
2023-10-21T16:45:08.512Z,15.87
2023-10-21T16:47:36.345Z,15.85
2023-10-21T16:50:04.357Z,15.79
2023-10-21T16:52:32.097Z,15.73
2023-10-21T16:55:01.408Z,15.79
2023-10-21T16:57:29.277Z,15.78
2023-10-21T16:59:57.153Z,15.81
2023-10-21T17:02:26.357Z,15.82
2023-10-21T17:04:54.160Z,15.81
2023-10-21T17:07:21.960Z,15.88
2023-10-21T17:09:51.588Z,15.89
2023-10-21T17:12:19.431Z,15.88
2023-10-21T17:14:47.240Z,15.90
2023-10-21T17:17:15.024Z,15.87
2023-10-21T17:19:44.156Z,15.91
2023-10-21T17:22:11.991Z,15.86
2023-10-21T17:24:39.916Z,15.85
2023-10-21T17:27:07.709Z,15.82
2023-10-21T17:29:37.759Z,15.83
2023-10-21T17:32:06.543Z,15.80
2023-10-21T17:34:34.421Z,15.77
2023-10-21T17:37:04.681Z,15.75
2023-10-21T17:39:32.757Z,15.78
2023-10-21T17:42:02.383Z,15.73
2023-10-21T17:44:32.602Z,15.79
2023-10-21T17:47:01.128Z,15.75
2023-10-21T17:49:29.124Z,15.74
2023-10-21T17:51:58.369Z,15.69
2023-10-21T17:54:27.910Z,15.76
2023-10-21T17:56:55.682Z,15.72
2023-10-21T17:59:23.483Z,15.70
2023-10-21T18:01:51.461Z,15.69
2023-10-21T18:04:19.550Z,15.75
2023-10-21T18:06:47.452Z,15.73
2023-10-21T18:09:15.394Z,15.77
2023-10-21T18:11:44.704Z,15.75
2023-10-21T18:14:12.512Z,15.76
2023-10-21T18:16:42.057Z,15.78
2023-10-21T18:19:10.159Z,15.79
2023-10-21T18:21:38.157Z,15.76
2023-10-21T18:24:06.599Z,15.77
2023-10-21T18:26:34.632Z,15.76
2023-10-21T18:29:04.067Z,15.76
2023-10-21T18:31:32.000Z,15.71
2023-10-21T18:33:59.882Z,15.73
2023-10-21T18:36:27.822Z,15.66
2023-10-21T18:38:55.700Z,15.68
2023-10-21T18:41:23.975Z,15.60
2023-10-21T18:43:51.850Z,15.68
2023-10-21T18:46:21.058Z,15.69
2023-10-21T18:48:48.958Z,15.68
2023-10-21T18:51:23.230Z,15.72
2023-10-21T18:53:51.551Z,15.73
2023-10-21T18:56:19.345Z,15.73
2023-10-21T18:58:47.258Z,15.72
2023-10-21T19:01:15.157Z,15.70
2023-10-21T19:03:44.324Z,15.65
2023-10-21T19:06:12.238Z,15.67
2023-10-21T19:08:40.124Z,15.64
2023-10-21T19:11:08.158Z,15.66
2023-10-21T19:13:37.137Z,15.65
2023-10-21T19:16:05.708Z,15.61
2023-10-21T19:18:33.578Z,15.62
2023-10-21T19:21:07.377Z,15.57
2023-10-21T19:23:35.435Z,15.52
2023-10-21T19:26:03.295Z,15.49
2023-10-21T19:28:31.410Z,15.47
2023-10-21T19:31:05.541Z,15.48
2023-10-21T19:33:33.439Z,15.48
2023-10-21T19:36:01.152Z,15.45
2023-10-21T19:38:30.311Z,15.43
2023-10-21T19:40:58.091Z,15.43
2023-10-21T19:43:25.900Z,15.41
2023-10-21T19:45:53.770Z,15.36
2023-10-21T19:48:21.742Z,15.33
2023-10-21T19:50:49.628Z,15.31
2023-10-21T19:53:17.441Z,15.33
2023-10-21T19:55:54.924Z,15.29
2023-10-21T19:58:24.012Z,15.33
2023-10-21T20:00:55.972Z,15.31
2023-10-21T20:03:28.551Z,15.28
2023-10-21T20:05:56.783Z,15.24
2023-10-21T20:08:24.909Z,15.23
2023-10-21T20:11:03.339Z,15.12
2023-10-21T20:13:31.454Z,15.15
2023-10-21T20:15:59.268Z,15.09
2023-10-21T20:18:27.137Z,15.10
2023-10-21T20:20:55.109Z,15.08
2023-10-21T20:23:23.268Z,15.04
2023-10-21T20:25:51.029Z,15.03
2023-10-21T20:28:20.146Z,15.02
2023-10-21T20:30:48.345Z,15.03
2023-10-21T20:33:16.453Z,14.98
2023-10-21T20:35:45.507Z,14.99
2023-10-21T20:38:16.508Z,14.99
2023-10-21T20:40:44.291Z,14.99
2023-10-21T20:43:12.094Z,14.98
2023-10-21T20:45:41.384Z,14.97
2023-10-21T20:48:09.730Z,14.95
2023-10-21T20:50:42.114Z,14.93
2023-10-21T20:53:10.026Z,14.87
2023-10-21T20:55:38.789Z,14.93
2023-10-21T20:58:07.017Z,14.97
2023-10-21T21:00:36.073Z,14.93
2023-10-21T21:03:06.583Z,14.93
2023-10-21T21:05:35.439Z,14.94
2023-10-21T21:08:05.234Z,14.91
2023-10-21T21:10:33.214Z,14.92
2023-10-21T21:13:01.920Z,14.88
2023-10-21T21:15:29.982Z,14.90
2023-10-21T21:17:58.302Z,14.86
2023-10-21T21:20:27.454Z,14.80
2023-10-21T21:22:55.283Z,14.84
2023-10-21T21:25:23.211Z,14.85
2023-10-21T21:27:51.158Z,14.86
2023-10-21T21:30:19.332Z,14.83
2023-10-21T21:32:47.356Z,14.84
2023-10-21T21:35:15.425Z,14.81
2023-10-21T21:37:44.536Z,14.82
2023-10-21T21:40:12.817Z,14.80
2023-10-21T21:42:40.845Z,14.78
2023-10-21T21:45:09.874Z,14.78
2023-10-21T21:47:37.909Z,14.80
2023-10-21T21:50:06.545Z,14.81
2023-10-21T21:52:34.671Z,14.79
2023-10-21T21:55:03.846Z,14.77
2023-10-21T21:57:31.675Z,14.73
2023-10-21T21:59:59.444Z,14.77
2023-10-21T22:02:28.852Z,14.77
2023-10-21T22:04:56.636Z,14.77
2023-10-21T22:07:25.942Z,14.80
2023-10-21T22:09:54.458Z,14.83
2023-10-21T22:12:23.710Z,14.91
2023-10-21T22:14:51.499Z,14.92
2023-10-21T22:17:19.274Z,14.97
2023-10-21T22:19:47.987Z,15.05
2023-10-21T22:22:15.762Z,15.07
2023-10-21T22:24:43.529Z,15.18
2023-10-21T22:27:15.498Z,15.18
2023-10-21T22:29:45.893Z,15.21
2023-10-21T22:32:13.919Z,15.28
2023-10-21T22:34:41.711Z,15.33
2023-10-21T22:37:09.514Z,15.30
2023-10-21T22:39:38.061Z,15.35
2023-10-21T22:42:07.665Z,15.36
2023-10-21T22:44:36.222Z,15.41
2023-10-21T22:47:07.011Z,15.43
2023-10-21T22:49:34.854Z,15.42
2023-10-21T22:52:02.787Z,15.43
2023-10-21T22:54:31.160Z,15.44
2023-10-21T22:56:59.182Z,15.44
2023-10-21T22:59:26.913Z,15.45
2023-10-21T23:01:54.693Z,15.44
2023-10-21T23:04:24.213Z,15.41
2023-10-21T23:06:52.911Z,15.45
2023-10-21T23:09:29.948Z,15.46
2023-10-21T23:11:58.002Z,15.46
2023-10-21T23:14:25.805Z,15.44
2023-10-21T23:16:53.617Z,15.44
2023-10-21T23:19:23.554Z,15.42
2023-10-21T23:21:51.684Z,15.43
2023-10-21T23:24:19.506Z,15.36
2023-10-21T23:26:47.277Z,15.41
2023-10-21T23:29:15.067Z,15.40
2023-10-21T23:31:42.878Z,15.38
2023-10-21T23:34:10.749Z,15.38
2023-10-21T23:36:41.187Z,15.37
2023-10-21T23:39:12.346Z,15.36
2023-10-21T23:41:41.256Z,15.37
2023-10-21T23:44:09.106Z,15.34
2023-10-21T23:46:37.262Z,15.35
2023-10-21T23:49:05.380Z,15.37
2023-10-21T23:51:33.180Z,15.35
2023-10-21T23:54:02.286Z,15.38
2023-10-21T23:56:30.174Z,15.36
2023-10-21T23:58:57.920Z,15.38
